Ardenvoir, WA

9:02 AM PDT on September 19, 2014 (GMT -0700)
Entiat Valley | Change Station
CLOSE
Current Station
Personal Weather Station
Location: Entiat, WA
Elevation: 1050 ft
Nearby Weather Stations

Elev 1050 ft 47.70 °N, 120.33 °W | Updated 9 seconds ago

Partly Cloudy
Partly Cloudy
67.8 °F
Feels Like 67.8 °F
N
1.0
Wind Variable Wind from ESE
Gusts 2.0 mph

Today
High -- | Low -- °F
--% Chance of Precip.
Yesterday
High -- | Low -- °F
Precip. -- in
6:44 AM 7:05 PM
Waning Crescent, 18% visible
Pressure 29.98 in
Visibility 10.0 miles
Clouds Clear
Dew Point 54 °F
Humidity 61%
Rainfall 0.00 in
Snow Depth 0 in , 0 in , 0 in
UV 2 out of 12
Pollen 2.90 out of 12
Air Quality Not available.
Flu Activity Not available.
METAR KEAT 191555Z AUTO 31009KT 10SM CLR 22/09 A3000 RMK AO2 SLP151 T02170094

More Conditions Fewer Conditions

Pressure 29.98 in
Visibility 10.0 miles
Clouds Clear
Dew Point 54 °F
Humidity 61%
Rainfall 0.00 in
Snow Depth 0 in , 0 in , 0 in
UV 2 out of 12
Pollen 2.90 out of 12
Air Quality Not available.
Flu Activity Not available.
METAR KEAT 191555Z AUTO 31009KT 10SM CLR 22/09 A3000 RMK AO2 SLP151 T02170094

More Conditions Fewer Conditions

10-Day Weather Forecast

Almanac

Astronomy

Sep. 19, 2014 Rise Set
Actual Time 6:44 AM PDT 7:05 PM PDT
Civil Twilight 6:13 AM PDT 7:36 PM PDT
Nautical Twilight 5:36 AM PDT 8:12 PM PDT
Astronomical Twilight 4:58 AM PDT 8:50 PM PDT
Moon 2:19 AM PDT 4:49 PM PDT
Length of Visible Light 13h 22m
Length of Day
12h 20m
Tomorrow will be 3m 26s shorter.
Waning Crescent, 18% of the Moon is Illuminated
Today
Waning Crescent
Sep 24
New
Oct 1
First Quarter
Oct 8
Full
Oct 15
Last Quarter

Today's Extremes

State Highs State Lows

Community

WunderPhotos

Upload Photos

1,754,643 photos uploaded!

WunderBlogs® & News

By Dr. Jeff Masters
Director of Meteorology, Weather Underground
By Kari Strenfel
Meteorologist, Weather Underground
By Christopher C. Burt
Weather Historian, Weather Underground
September 19, 2014
September 19, 2014
September 19, 2014

Nearby

Snow Depth

Station Depth Elevation
White Pass E.S. 0 in 4500 ft
Mount Gardner 0 in 3000 ft
Alpine Meadows 0 in 3500 ft
Skookum Creek 0 in 3920 ft
Pigtail Peak 0 in 5900 ft

Earthquake Activity

City Distance Mag. Time & Date
Morton, Washington 135 miles 3.0 5:43 AM PDT
2014-09-16
Minimum magnitude displayed is 2.5.

Coastal Water Temperatures

Place Temperature
No Stations Reporting

Nearby Weather Stations